createdAt,value
2023-02-01T00:00:25.765Z,4.30
2023-02-01T00:02:53.856Z,4.20
2023-02-01T00:05:21.843Z,4.30
2023-02-01T00:07:50.204Z,4.30
2023-02-01T00:10:18.677Z,4.30
2023-02-01T00:12:46.976Z,4.30
2023-02-01T00:15:15.126Z,4.40
2023-02-01T00:17:44.329Z,4.40
2023-02-01T00:20:13.183Z,4.30
2023-02-01T00:22:41.111Z,4.30
2023-02-01T00:25:09.920Z,4.30
2023-02-01T00:27:37.873Z,4.30
2023-02-01T00:30:07.042Z,4.40
2023-02-01T00:32:35.024Z,4.40
2023-02-01T00:35:04.407Z,4.40
2023-02-01T00:37:32.315Z,4.40
2023-02-01T00:40:00.215Z,4.40
2023-02-01T00:42:28.129Z,4.40
2023-02-01T00:44:56.024Z,4.40
2023-02-01T00:47:23.991Z,4.40
2023-02-01T00:49:51.876Z,4.40
2023-02-01T00:52:21.138Z,4.40
2023-02-01T00:54:49.341Z,4.40
2023-02-01T00:57:17.266Z,4.50
2023-02-01T00:59:45.258Z,4.50
2023-02-01T01:02:15.178Z,4.50
2023-02-01T01:04:43.299Z,4.50
2023-02-01T01:07:11.178Z,4.50
2023-02-01T01:09:40.554Z,4.50
2023-02-01T01:12:08.528Z,4.50
2023-02-01T01:14:36.484Z,4.50
2023-02-01T01:17:04.529Z,4.50
2023-02-01T01:19:32.556Z,4.50
2023-02-01T01:22:00.518Z,4.50
2023-02-01T01:24:28.467Z,4.50
2023-02-01T01:26:57.713Z,4.60
2023-02-01T01:29:25.711Z,4.60
2023-02-01T01:31:53.684Z,4.50
2023-02-01T01:34:21.799Z,4.50
2023-02-01T01:36:49.689Z,4.60
2023-02-01T01:39:18.059Z,4.50
2023-02-01T01:41:46.149Z,4.60
2023-02-01T01:45:11.167Z,4.60
2023-02-01T01:47:45.115Z,4.60
2023-02-01T01:50:20.796Z,4.60
2023-02-01T01:52:52.470Z,4.60
2023-02-01T01:55:23.910Z,4.60
2023-02-01T01:57:57.873Z,4.60
2023-02-01T02:00:26.199Z,4.60
2023-02-01T02:03:01.078Z,4.60
2023-02-01T02:05:30.191Z,4.70
2023-02-01T02:08:01.810Z,4.70
2023-02-01T02:10:44.014Z,4.70
2023-02-01T02:13:12.680Z,4.70
2023-02-01T02:15:47.084Z,4.70
2023-02-01T02:18:24.150Z,4.70
2023-02-01T02:21:08.154Z,4.70
2023-02-01T02:24:01.195Z,4.70
2023-02-01T02:26:38.611Z,4.70
2023-02-01T02:29:58.424Z,4.70
2023-02-01T02:32:59.822Z,4.70
2023-02-01T02:35:35.304Z,4.70
2023-02-01T02:38:11.732Z,4.70
2023-02-01T02:40:49.095Z,4.70
2023-02-01T02:43:41.039Z,4.70
2023-02-01T02:46:30.963Z,4.70
2023-02-01T02:49:06.980Z,4.70
2023-02-01T02:52:03.294Z,4.70
2023-02-01T02:54:52.646Z,4.70
2023-02-01T02:57:44.328Z,4.70
2023-02-01T03:00:34.080Z,4.70
2023-02-01T03:03:20.313Z,4.70
2023-02-01T03:05:51.488Z,4.70
2023-02-01T03:08:23.670Z,4.60
2023-02-01T03:10:59.500Z,4.60
2023-02-01T03:13:37.310Z,4.60
2023-02-01T03:16:14.382Z,4.60
2023-02-01T03:18:50.916Z,4.60
2023-02-01T03:21:24.401Z,4.60
2023-02-01T03:23:56.963Z,4.60
2023-02-01T03:26:27.835Z,4.60
2023-02-01T03:28:59.417Z,4.60
2023-02-01T03:31:29.482Z,4.60
2023-02-01T03:33:58.058Z,4.60
2023-02-01T03:36:31.820Z,4.50
2023-02-01T03:39:06.517Z,4.50
2023-02-01T03:41:39.774Z,4.50
2023-02-01T03:44:15.405Z,4.50
2023-02-01T03:46:47.751Z,4.50
2023-02-01T03:49:22.718Z,4.50
2023-02-01T03:51:53.103Z,4.50
2023-02-01T03:54:22.702Z,4.50
2023-02-01T03:56:52.315Z,4.50
2023-02-01T03:59:20.707Z,4.60
2023-02-01T04:01:49.005Z,4.60
2023-02-01T04:04:20.902Z,4.60
2023-02-01T04:06:52.561Z,4.60
2023-02-01T04:09:22.913Z,4.60
2023-02-01T04:11:50.820Z,4.60
2023-02-01T04:14:18.869Z,4.60
2023-02-01T04:16:47.266Z,4.60
2023-02-01T04:19:15.178Z,4.60
2023-02-01T04:21:43.153Z,4.60
2023-02-01T04:24:11.590Z,4.70
2023-02-01T04:26:41.235Z,4.70
2023-02-01T04:29:11.216Z,4.70
2023-02-01T04:31:39.268Z,4.70
2023-02-01T04:34:07.262Z,4.70
2023-02-01T04:36:35.191Z,4.70
2023-02-01T04:39:03.134Z,4.70
2023-02-01T04:41:31.173Z,4.70
2023-02-01T04:44:00.415Z,4.70
2023-02-01T04:46:28.396Z,4.70
2023-02-01T04:48:56.435Z,4.70
2023-02-01T04:51:24.715Z,4.80
2023-02-01T04:53:52.565Z,4.80
2023-02-01T04:56:20.704Z,4.80
2023-02-01T04:58:48.616Z,4.90
2023-02-01T05:01:17.866Z,4.90
2023-02-01T05:03:45.801Z,4.90
2023-02-01T05:06:13.760Z,4.90
2023-02-01T05:08:41.709Z,4.90
2023-02-01T05:11:29.816Z,4.90
2023-02-01T05:13:56.834Z,5.00
2023-02-01T05:16:26.379Z,5.00
2023-02-01T05:18:54.366Z,5.00
2023-02-01T05:21:22.490Z,5.00
2023-02-01T05:24:07.832Z,5.10
2023-02-01T05:26:35.745Z,5.10
2023-02-01T05:29:03.941Z,5.10
2023-02-01T05:31:33.547Z,5.10
2023-02-01T05:34:01.623Z,5.10
2023-02-01T05:36:29.832Z,5.10
2023-02-01T05:38:57.765Z,5.10
2023-02-01T05:41:26.167Z,5.10
2023-02-01T05:43:54.004Z,5.10
2023-02-01T05:46:21.952Z,5.10
2023-02-01T05:48:51.354Z,5.10
2023-02-01T05:51:19.342Z,5.10
2023-02-01T05:53:47.224Z,5.10
2023-02-01T05:56:15.068Z,5.10
2023-02-01T05:58:42.948Z,5.00
2023-02-01T06:01:10.939Z,5.00
2023-02-01T06:03:39.211Z,5.00
2023-02-01T06:06:08.687Z,4.90
2023-02-01T06:08:36.683Z,4.90
2023-02-01T06:11:06.636Z,4.90
2023-02-01T06:13:35.010Z,4.90
2023-02-01T06:16:03.999Z,4.90
2023-02-01T06:18:32.583Z,4.90
2023-02-01T06:21:01.955Z,4.90
2023-02-01T06:23:32.268Z,4.90
2023-02-01T06:26:03.015Z,4.90
2023-02-01T06:28:31.176Z,4.90
2023-02-01T06:30:59.309Z,4.90
2023-02-01T06:33:27.815Z,5.00
2023-02-01T06:35:59.529Z,5.00
2023-02-01T06:38:28.137Z,5.10
2023-02-01T06:40:58.994Z,5.10
2023-02-01T06:43:28.588Z,5.20
2023-02-01T06:46:01.266Z,5.20
2023-02-01T06:48:29.306Z,5.30
2023-02-01T06:50:57.376Z,5.40
2023-02-01T06:53:25.324Z,5.40
2023-02-01T06:55:54.883Z,5.40
2023-02-01T06:58:24.417Z,5.50
2023-02-01T07:00:54.817Z,5.50
2023-02-01T07:03:22.933Z,5.50
2023-02-01T07:05:50.831Z,5.60
2023-02-01T07:08:18.693Z,5.70
2023-02-01T07:10:46.536Z,5.80
2023-02-01T07:13:14.389Z,5.80
2023-02-01T07:15:44.006Z,5.80
2023-02-01T07:18:11.889Z,5.90
2023-02-01T07:20:39.735Z,5.90
2023-02-01T07:23:07.944Z,5.90
2023-02-01T07:25:37.405Z,5.90
2023-02-01T07:28:05.340Z,5.90
2023-02-01T07:30:33.261Z,6.00
2023-02-01T07:33:03.022Z,6.00
2023-02-01T07:35:31.233Z,5.90
2023-02-01T07:38:00.117Z,6.00
2023-02-01T07:40:29.646Z,6.00
2023-02-01T07:42:58.465Z,6.00
2023-02-01T07:45:26.401Z,6.00
2023-02-01T07:47:55.007Z,6.10
2023-02-01T07:50:24.516Z,6.10
2023-02-01T07:52:54.314Z,6.10
2023-02-01T07:55:22.759Z,6.10
2023-02-01T07:57:50.616Z,6.20
2023-02-01T08:00:48.784Z,6.20
2023-02-01T08:03:17.479Z,6.20
2023-02-01T08:05:46.698Z,6.20
2023-02-01T08:08:14.600Z,6.10
2023-02-01T08:10:42.804Z,6.20
2023-02-01T08:13:11.047Z,6.20
2023-02-01T08:15:38.928Z,6.20
2023-02-01T08:18:07.141Z,6.20
2023-02-01T08:20:37.051Z,6.20
2023-02-01T08:23:10.686Z,6.20
2023-02-01T08:25:39.387Z,6.20
2023-02-01T08:28:08.538Z,6.30
2023-02-01T08:30:38.436Z,6.40
2023-02-01T08:33:07.872Z,6.40
2023-02-01T08:35:43.283Z,6.40
2023-02-01T08:38:13.191Z,6.40
2023-02-01T08:40:42.369Z,6.50
2023-02-01T08:43:10.251Z,6.50
2023-02-01T08:45:38.687Z,6.60
2023-02-01T08:48:07.129Z,6.70
2023-02-01T08:50:35.219Z,6.80
2023-02-01T08:53:03.189Z,6.90
2023-02-01T08:55:32.536Z,6.90
2023-02-01T08:58:00.392Z,6.90
2023-02-01T09:00:28.293Z,6.80
2023-02-01T09:02:57.126Z,6.80
2023-02-01T09:05:29.540Z,6.90
2023-02-01T09:08:03.526Z,6.90
2023-02-01T09:10:35.536Z,6.90
2023-02-01T09:13:04.003Z,6.90
2023-02-01T09:15:31.998Z,6.90
2023-02-01T09:17:59.897Z,6.70
2023-02-01T09:20:28.090Z,6.70
2023-02-01T09:22:57.377Z,6.60
2023-02-01T09:25:25.445Z,6.50
2023-02-01T09:27:54.685Z,6.60
2023-02-01T09:30:23.037Z,6.60
2023-02-01T09:32:51.130Z,6.60
2023-02-01T09:35:19.166Z,6.70
2023-02-01T09:37:47.050Z,6.80
2023-02-01T09:40:17.154Z,6.80
2023-02-01T09:43:19.600Z,6.80
2023-02-01T09:45:55.764Z,6.80
2023-02-01T09:48:30.192Z,6.70
2023-02-01T09:51:01.584Z,6.70
2023-02-01T09:53:34.064Z,6.80
2023-02-01T09:56:07.315Z,6.90
2023-02-01T09:58:40.228Z,6.90
2023-02-01T10:01:17.397Z,7.00
2023-02-01T10:03:45.622Z,6.90
2023-02-01T10:06:32.513Z,6.80
2023-02-01T10:09:17.719Z,6.80
2023-02-01T10:12:01.472Z,6.80
2023-02-01T10:14:49.382Z,6.80
2023-02-01T10:17:27.712Z,6.70
2023-02-01T10:20:06.811Z,6.70
2023-02-01T10:23:10.301Z,6.80
2023-02-01T10:25:37.882Z,6.90
2023-02-01T10:28:06.215Z,6.80
2023-02-01T10:30:42.682Z,6.80
2023-02-01T10:33:17.598Z,6.90
2023-02-01T10:35:47.797Z,7.10
2023-02-01T10:38:24.685Z,7.20
2023-02-01T10:40:54.006Z,7.10
2023-02-01T10:43:22.511Z,7.00
2023-02-01T10:45:51.849Z,7.00
2023-02-01T10:48:19.797Z,6.90
2023-02-01T10:50:56.205Z,7.00
2023-02-01T10:53:27.877Z,7.00
2023-02-01T10:55:56.825Z,7.00
2023-02-01T10:58:29.664Z,7.00
2023-02-01T11:01:03.759Z,7.00
2023-02-01T11:03:41.945Z,7.00
2023-02-01T11:06:20.007Z,7.00
2023-02-01T11:08:50.491Z,6.90
2023-02-01T11:11:20.284Z,6.90
2023-02-01T11:13:55.012Z,7.00
2023-02-01T11:16:32.021Z,7.00
2023-02-01T11:19:00.974Z,6.90
2023-02-01T11:21:29.760Z,6.90
2023-02-01T11:24:02.489Z,6.80
2023-02-01T11:26:32.149Z,6.90
2023-02-01T11:29:03.551Z,6.80
2023-02-01T11:31:34.864Z,6.80
2023-02-01T11:34:09.651Z,6.80
2023-02-01T11:36:39.367Z,6.80
2023-02-01T11:39:25.783Z,6.80
2023-02-01T11:42:02.952Z,6.80
2023-02-01T11:44:34.920Z,6.90
2023-02-01T11:47:25.022Z,6.90
2023-02-01T11:49:55.142Z,6.90
2023-02-01T11:52:45.082Z,6.90
2023-02-01T11:55:28.317Z,6.90
2023-02-01T11:58:08.693Z,7.00
2023-02-01T12:00:51.249Z,7.10
2023-02-01T12:03:54.737Z,7.40
2023-02-01T12:06:31.313Z,7.50
2023-02-01T12:09:15.571Z,7.40
2023-02-01T12:11:55.839Z,7.20
2023-02-01T12:14:36.097Z,7.00
2023-02-01T12:17:33.923Z,7.00
2023-02-01T12:20:24.650Z,7.00
2023-02-01T12:23:02.385Z,7.00
2023-02-01T12:25:41.658Z,7.00
2023-02-01T12:28:45.185Z,7.00
2023-02-01T12:31:40.963Z,7.10
2023-02-01T12:34:35.329Z,7.00
2023-02-01T12:37:13.501Z,7.00
2023-02-01T12:39:46.933Z,7.00
2023-02-01T12:42:20.386Z,7.00
2023-02-01T12:44:52.977Z,6.90
2023-02-01T12:47:26.655Z,6.80
2023-02-01T12:49:59.596Z,6.80
2023-02-01T12:52:36.577Z,6.90
2023-02-01T12:55:11.911Z,6.90
2023-02-01T12:57:42.788Z,6.90
2023-02-01T13:00:23.227Z,6.80
2023-02-01T13:02:57.485Z,6.70
2023-02-01T13:05:30.921Z,6.60
2023-02-01T13:08:04.707Z,6.60
2023-02-01T13:10:36.219Z,6.50
2023-02-01T13:13:12.828Z,6.50
2023-02-01T13:15:44.847Z,6.40
2023-02-01T13:18:17.916Z,6.40
2023-02-01T13:20:52.159Z,6.50
2023-02-01T13:23:27.765Z,6.50
2023-02-01T13:25:56.354Z,6.60
2023-02-01T13:28:29.732Z,6.60
2023-02-01T13:31:24.930Z,6.60
2023-02-01T13:34:05.162Z,6.60
2023-02-01T13:36:50.780Z,6.60
2023-02-01T13:39:56.436Z,6.70
2023-02-01T13:42:28.609Z,6.80
2023-02-01T13:45:00.727Z,6.70
2023-02-01T13:47:31.960Z,6.70
2023-02-01T13:50:03.892Z,6.70
2023-02-01T13:52:39.667Z,6.70
2023-02-01T13:55:31.490Z,6.60
2023-02-01T13:58:16.662Z,6.40
2023-02-01T14:00:45.811Z,6.40
2023-02-01T14:03:22.387Z,6.30
2023-02-01T14:06:19.238Z,6.30
2023-02-01T14:09:09.049Z,6.40
2023-02-01T14:11:44.031Z,6.40
2023-02-01T14:14:42.599Z,6.40
2023-02-01T14:17:38.300Z,6.50
2023-02-01T14:20:46.703Z,6.60
2023-02-01T14:23:24.321Z,6.60
2023-02-01T14:26:12.611Z,6.70
2023-02-01T14:29:04.739Z,6.70
2023-02-01T14:31:49.638Z,6.70
2023-02-01T14:34:24.534Z,6.70
2023-02-01T14:36:57.439Z,6.70
2023-02-01T14:39:38.618Z,6.70
2023-02-01T14:42:19.312Z,6.70
2023-02-01T14:44:59.063Z,6.70
2023-02-01T14:47:31.762Z,6.60
2023-02-01T14:50:13.220Z,6.60
2023-02-01T14:52:44.519Z,6.60
2023-02-01T14:55:17.500Z,6.50
2023-02-01T14:57:48.628Z,6.50
2023-02-01T15:00:25.729Z,6.50
2023-02-01T15:02:56.027Z,6.50
2023-02-01T15:05:31.775Z,6.50
2023-02-01T15:08:05.256Z,6.50
2023-02-01T15:10:35.742Z,6.50
2023-02-01T15:13:03.720Z,6.50
2023-02-01T15:15:37.065Z,6.50
2023-02-01T15:18:05.255Z,6.50
2023-02-01T15:20:34.567Z,6.50
2023-02-01T15:23:05.243Z,6.50
2023-02-01T15:25:37.608Z,6.50
2023-02-01T15:28:06.939Z,6.50
2023-02-01T15:30:37.824Z,6.60
2023-02-01T15:33:08.543Z,6.50
2023-02-01T15:35:44.363Z,6.50
2023-02-01T15:38:43.488Z,6.50
2023-02-01T15:41:15.538Z,6.50
2023-02-01T15:43:45.847Z,6.50
2023-02-01T15:46:19.397Z,6.50
2023-02-01T15:48:50.187Z,6.50
2023-02-01T15:51:21.444Z,6.50
2023-02-01T15:53:52.616Z,6.50
2023-02-01T15:56:25.930Z,6.50
2023-02-01T15:58:57.341Z,6.60
2023-02-01T16:01:27.111Z,6.60
2023-02-01T16:04:12.458Z,6.60
2023-02-01T16:06:48.992Z,6.60
2023-02-01T16:09:18.001Z,6.60
2023-02-01T16:11:58.218Z,6.60
2023-02-01T16:14:26.840Z,6.60
2023-02-01T16:16:57.954Z,6.60
2023-02-01T16:19:29.163Z,6.60
2023-02-01T16:21:57.723Z,6.70
2023-02-01T16:24:27.173Z,6.60
2023-02-01T16:26:55.120Z,6.60
2023-02-01T16:29:23.095Z,6.60
2023-02-01T16:31:51.790Z,6.60
2023-02-01T16:34:21.613Z,6.60
2023-02-01T16:36:52.678Z,6.60
2023-02-01T16:39:21.654Z,6.70
2023-02-01T16:41:49.905Z,6.60
2023-02-01T16:44:17.874Z,6.70
2023-02-01T16:46:48.778Z,6.70
2023-02-01T16:49:23.016Z,6.70
2023-02-01T16:51:53.734Z,6.60
2023-02-01T16:54:22.667Z,6.70
2023-02-01T16:56:51.114Z,6.70
2023-02-01T16:59:19.257Z,6.70
2023-02-01T17:01:47.194Z,6.70
2023-02-01T17:04:17.410Z,6.60
2023-02-01T17:06:49.764Z,6.60
2023-02-01T17:09:17.676Z,6.70
2023-02-01T17:11:45.643Z,6.60
2023-02-01T17:14:18.255Z,6.60
2023-02-01T17:16:48.836Z,6.60
2023-02-01T17:19:19.600Z,6.60
2023-02-01T17:21:54.311Z,6.60
2023-02-01T17:24:24.954Z,6.60
2023-02-01T17:26:53.808Z,6.60
2023-02-01T17:29:21.995Z,6.60
2023-02-01T17:31:52.473Z,6.60
2023-02-01T17:34:20.514Z,6.60
2023-02-01T17:36:51.430Z,6.70
2023-02-01T17:39:37.851Z,6.70
2023-02-01T17:42:06.917Z,6.60
2023-02-01T17:44:34.897Z,6.60
2023-02-01T17:47:02.790Z,6.60
2023-02-01T17:49:30.657Z,6.60
2023-02-01T17:52:00.815Z,6.60
2023-02-01T17:54:28.834Z,6.60
2023-02-01T17:57:00.155Z,6.60
2023-02-01T17:59:28.325Z,6.60
2023-02-01T18:02:00.721Z,6.60
2023-02-01T18:04:28.751Z,6.60
2023-02-01T18:06:57.642Z,6.60
2023-02-01T18:09:27.219Z,6.60
2023-02-01T18:11:55.942Z,6.60
2023-02-01T18:14:23.876Z,6.60
2023-02-01T18:16:51.848Z,6.60
2023-02-01T18:19:19.844Z,6.60
2023-02-01T18:21:47.734Z,6.60
2023-02-01T18:24:16.996Z,6.60
2023-02-01T18:26:46.375Z,6.60
2023-02-01T18:29:14.439Z,6.60
2023-02-01T18:31:48.390Z,6.60
2023-02-01T18:34:21.446Z,6.60
2023-02-01T18:36:49.808Z,6.60
2023-02-01T18:39:18.157Z,6.60
2023-02-01T18:41:52.177Z,6.60
2023-02-01T18:44:20.380Z,6.60
2023-02-01T18:46:48.325Z,6.60
2023-02-01T18:49:18.683Z,6.60
2023-02-01T18:51:47.033Z,6.50
2023-02-01T18:54:15.203Z,6.60
2023-02-01T18:56:43.848Z,6.50
2023-02-01T18:59:13.195Z,6.60
2023-02-01T19:01:41.429Z,6.60
2023-02-01T19:04:20.723Z,6.60
2023-02-01T19:06:53.749Z,6.60
2023-02-01T19:09:22.271Z,6.60
2023-02-01T19:11:50.490Z,6.60
2023-02-01T19:14:19.859Z,6.60
2023-02-01T19:16:47.991Z,6.70
2023-02-01T19:19:16.015Z,6.70
2023-02-01T19:21:44.105Z,6.70
2023-02-01T19:24:12.106Z,6.70
2023-02-01T19:26:42.331Z,6.60
2023-02-01T19:29:10.283Z,6.60
2023-02-01T19:31:39.655Z,6.60
2023-02-01T19:34:07.643Z,6.60
2023-02-01T19:36:41.558Z,6.60
2023-02-01T19:39:11.543Z,6.60
2023-02-01T19:41:39.444Z,6.60
2023-02-01T19:44:07.472Z,6.50
2023-02-01T19:46:36.250Z,6.60
2023-02-01T19:49:07.833Z,6.60
2023-02-01T19:51:35.774Z,6.50
2023-02-01T19:54:03.625Z,6.60
2023-02-01T19:56:31.519Z,6.60
2023-02-01T19:58:59.926Z,6.60
2023-02-01T20:01:27.258Z,6.60
2023-02-01T20:03:58.512Z,6.60
2023-02-01T20:06:27.994Z,6.60
2023-02-01T20:08:56.096Z,6.60
2023-02-01T20:11:25.282Z,6.60
2023-02-01T20:13:53.346Z,6.60
2023-02-01T20:16:22.263Z,6.70
2023-02-01T20:18:50.654Z,6.70
2023-02-01T20:21:19.258Z,6.70
2023-02-01T20:23:49.553Z,6.70
2023-02-01T20:26:21.554Z,6.70
2023-02-01T20:28:49.523Z,6.70
2023-02-01T20:31:17.523Z,6.70
2023-02-01T20:33:45.424Z,6.70
2023-02-01T20:36:13.504Z,6.70
2023-02-01T20:38:41.533Z,6.70
2023-02-01T20:41:11.247Z,6.70
2023-02-01T20:43:39.554Z,6.70
2023-02-01T20:46:09.600Z,6.80
2023-02-01T20:48:37.743Z,6.80
2023-02-01T20:51:05.965Z,6.70
2023-02-01T20:53:34.058Z,6.70
2023-02-01T20:56:02.048Z,6.70
2023-02-01T20:58:31.857Z,6.70
2023-02-01T21:00:59.835Z,6.70
2023-02-01T21:03:28.328Z,6.80
2023-02-01T21:05:58.482Z,6.80
2023-02-01T21:08:27.863Z,6.80
2023-02-01T21:11:00.867Z,6.80
2023-02-01T21:13:32.227Z,6.80
2023-02-01T21:16:00.368Z,6.80
2023-02-01T21:18:28.384Z,6.80
2023-02-01T21:20:56.636Z,6.80
2023-02-01T21:23:24.986Z,6.80
2023-02-01T21:25:52.928Z,6.90
2023-02-01T21:28:20.923Z,6.80
2023-02-01T21:30:50.399Z,6.80
2023-02-01T21:33:18.399Z,6.80
2023-02-01T21:35:46.306Z,6.80
2023-02-01T21:38:14.318Z,6.80
2023-02-01T21:40:42.225Z,6.80
2023-02-01T21:43:10.154Z,6.90
2023-02-01T21:45:43.545Z,6.90
2023-02-01T21:48:12.969Z,6.90
2023-02-01T21:50:41.467Z,6.90
2023-02-01T21:53:09.406Z,6.90
2023-02-01T21:55:37.382Z,6.80
2023-02-01T21:58:12.537Z,6.80
2023-02-01T22:00:40.686Z,6.80
2023-02-01T22:03:08.657Z,6.80
2023-02-01T22:05:37.989Z,6.80
2023-02-01T22:08:06.174Z,6.90
2023-02-01T22:10:34.144Z,6.90
2023-02-01T22:13:02.045Z,6.90
2023-02-01T22:15:30.373Z,6.90
2023-02-01T22:17:58.300Z,6.90
2023-02-01T22:20:28.897Z,6.90
2023-02-01T22:22:58.297Z,6.90
2023-02-01T22:25:28.467Z,6.90
2023-02-01T22:28:31.599Z,6.90
2023-02-01T22:30:44.918Z,6.90
2023-02-01T22:33:13.212Z,6.90
2023-02-01T22:35:41.403Z,6.80
2023-02-01T22:38:10.584Z,6.80
2023-02-01T22:40:38.463Z,6.70
2023-02-01T22:43:06.377Z,6.70
2023-02-01T22:45:34.281Z,6.60
2023-02-01T22:48:02.182Z,6.60
2023-02-01T22:50:30.160Z,6.50
2023-02-01T22:52:58.079Z,6.60
2023-02-01T22:55:27.272Z,6.60
2023-02-01T22:57:55.158Z,6.60
2023-02-01T23:00:24.858Z,6.60
2023-02-01T23:02:53.046Z,6.60
2023-02-01T23:05:21.801Z,6.60
2023-02-01T23:07:50.960Z,6.60
2023-02-01T23:10:20.325Z,6.60
2023-02-01T23:12:49.936Z,6.60
2023-02-01T23:15:18.326Z,6.60
2023-02-01T23:17:46.794Z,6.60
2023-02-01T23:20:17.859Z,6.60
2023-02-01T23:22:47.417Z,6.60
2023-02-01T23:25:19.104Z,6.70
2023-02-01T23:27:48.772Z,6.70
2023-02-01T23:30:18.210Z,6.70
2023-02-01T23:32:46.056Z,6.70
2023-02-01T23:35:13.924Z,6.70
2023-02-01T23:37:41.888Z,6.70
2023-02-01T23:40:11.041Z,6.70
2023-02-01T23:42:39.212Z,6.60
2023-02-01T23:45:08.141Z,6.60
2023-02-01T23:47:37.916Z,6.60
2023-02-01T23:50:06.633Z,6.60
2023-02-01T23:52:34.515Z,6.60
2023-02-01T23:55:02.444Z,6.60
2023-02-01T23:57:30.404Z,6.60
